Time;durP1;ratioP1;P1;durP2;ratioP2;P2;SDS_P1;SDS_P2;PMS_P1;PMS_P2;Temp;Humidity;BMP_temperature;BMP_pressure;BME280_temperature;BME280_humidity;BME280_pressure;Samples;Min_cycle;Max_cycle;Signal;HPM_P1;HPM_P2
2020/12/24 00:00:14;;;;;;;5.72;1.80;;;9.20;59.00;;;;;;5010981;28;20421;-66
2020/12/24 00:02:40;;;;;;;3.33;1.50;;;9.20;45.50;;;;;;5011375;28;20421;-66
2020/12/24 00:05:06;;;;;;;3.13;1.40;;;9.10;50.00;;;;;;5010931;28;20986;-66
2020/12/24 00:07:32;;;;;;;3.63;1.30;;;9.10;31.80;;;;;;5011094;28;20416;-67
2020/12/24 00:09:58;;;;;;;4.10;1.40;;;9.10;29.70;;;;;;5011185;28;20451;-66
2020/12/24 00:12:25;;;;;;;4.32;1.60;;;9.00;22.20;;;;;;5010943;28;20412;-66
2020/12/24 00:14:51;;;;;;;4.20;1.60;;;9.00;3.90;;;;;;5011063;28;20416;-65
2020/12/24 00:17:19;;;;;;;4.20;1.30;;;9.00;1.00;;;;;;5010238;28;22368;-67
2020/12/24 00:19:45;;;;;;;3.40;1.90;;;8.90;1.00;;;;;;5011299;28;20923;-66
2020/12/24 00:22:11;;;;;;;6.07;1.60;;;8.90;1.00;;;;;;5010907;28;20428;-66
2020/12/24 00:24:37;;;;;;;5.50;2.10;;;8.90;1.00;;;;;;5010728;28;20433;-66
2020/12/24 00:27:05;;;;;;;3.80;1.60;;;8.90;1.00;;;;;;5010704;28;20913;-66
2020/12/24 00:29:32;;;;;;;6.00;1.50;;;8.90;1.00;;;;;;5010684;28;20580;-65
2020/12/24 00:31:58;;;;;;;2.53;1.30;;;8.80;1.00;;;;;;5010661;28;20889;-66
2020/12/24 00:34:25;;;;;;;5.90;2.00;;;8.80;1.00;;;;;;5010957;28;20408;-66
2020/12/24 00:36:51;;;;;;;4.73;1.70;;;8.70;1.00;;;;;;5010539;28;20416;-66
2020/12/24 00:39:17;;;;;;;4.40;1.60;;;8.70;1.00;;;;;;5010902;28;20417;-66
2020/12/24 00:41:43;;;;;;;5.07;2.33;;;8.70;1.00;;;;;;5010245;28;20413;-66
2020/12/24 00:44:09;;;;;;;4.57;1.70;;;8.60;1.00;;;;;;5010902;28;20425;-66
2020/12/24 00:46:36;;;;;;;6.93;2.00;;;8.60;1.00;;;;;;5011703;28;20416;-66
2020/12/24 00:49:02;;;;;;;4.40;1.90;;;8.60;1.00;;;;;;5014421;28;20416;-65
2020/12/24 00:51:28;;;;;;;5.15;1.52;;;8.50;1.00;;;;;;5014032;28;20427;-65
2020/12/24 00:53:55;;;;;;;5.47;1.50;;;8.50;1.00;;;;;;5014040;28;20418;-66
2020/12/24 00:56:21;;;;;;;5.25;1.60;;;8.40;1.00;;;;;;5014058;28;20432;-66
2020/12/24 00:58:47;;;;;;;7.97;1.70;;;8.40;1.00;;;;;;5014238;28;20501;-65
2020/12/24 01:01:13;;;;;;;3.85;1.58;;;8.40;1.00;;;;;;5014299;28;20424;-66
2020/12/24 01:03:40;;;;;;;6.40;1.70;;;8.50;1.00;;;;;;5014146;28;20425;-65
2020/12/24 01:06:06;;;;;;;3.95;1.50;;;8.50;1.00;;;;;;5013899;28;20432;-66
2020/12/24 01:08:32;;;;;;;5.20;1.70;;;8.50;1.00;;;;;;5014101;28;20419;-66
2020/12/24 01:10:58;;;;;;;7.63;2.03;;;8.50;1.00;;;;;;5013634;28;20413;-66
2020/12/24 01:13:24;;;;;;;7.68;2.25;;;8.60;1.00;;;;;;5013846;28;20417;-65
2020/12/24 01:15:50;;;;;;;4.28;1.90;;;8.60;1.00;;;;;;5013904;28;20417;-65
2020/12/24 01:18:16;;;;;;;5.15;1.60;;;8.50;1.00;;;;;;5013621;28;20817;-66
2020/12/24 01:20:44;;;;;;;6.20;1.60;;;8.50;1.00;;;;;;5014047;28;20436;-65
2020/12/24 01:23:10;;;;;;;5.45;2.00;;;8.50;1.00;;;;;;5013533;28;20524;-66
2020/12/24 01:25:36;;;;;;;5.88;2.17;;;8.40;1.00;;;;;;5013423;28;21178;-66
2020/12/24 01:28:02;;;;;;;8.20;1.50;;;8.50;1.00;;;;;;5013838;28;20518;-66
2020/12/24 01:30:28;;;;;;;3.95;1.25;;;8.40;1.00;;;;;;5013863;28;20439;-66
2020/12/24 01:32:55;;;;;;;5.13;1.52;;;8.40;1.00;;;;;;5013464;28;20424;-65
2020/12/24 01:35:21;;;;;;;3.85;1.60;;;8.30;1.00;;;;;;5013369;28;20408;-66
2020/12/24 01:37:48;;;;;;;4.13;1.80;;;8.30;1.00;;;;;;5013545;28;20467;-65
2020/12/24 01:40:14;;;;;;;4.17;1.40;;;8.30;1.00;;;;;;5015302;28;20413;-65
2020/12/24 01:42:40;;;;;;;5.55;1.60;;;8.30;1.00;;;;;;5013477;28;20444;-66
2020/12/24 01:45:07;;;;;;;5.85;2.30;;;8.30;1.00;;;;;;5013400;28;20428;-65
2020/12/24 01:47:33;;;;;;;6.70;2.38;;;8.20;1.00;;;;;;5013218;28;20408;-65
2020/12/24 01:50:00;;;;;;;6.95;2.60;;;8.30;1.00;;;;;;5013270;28;20425;-66
2020/12/24 01:52:32;;;;;;;4.75;1.70;;;8.20;1.00;;;;;;5013191;28;20490;-65
2020/12/24 01:55:01;;;;;;;4.40;1.70;;;8.20;1.00;;;;;;5013548;28;20861;-66
2020/12/24 01:57:27;;;;;;;5.85;1.90;;;8.30;1.00;;;;;;5013024;28;20463;-66
2020/12/24 01:59:55;;;;;;;4.68;1.45;;;8.30;1.00;;;;;;5012944;28;20467;-66
2020/12/24 02:02:22;;;;;;;5.38;1.55;;;8.30;1.00;;;;;;5012840;28;20790;-66
2020/12/24 02:04:48;;;;;;;4.20;1.60;;;8.40;1.00;;;;;;5012920;28;20472;-66
2020/12/24 02:07:16;;;;;;;7.15;2.00;;;8.50;1.00;;;;;;5012605;28;20471;-65
2020/12/24 02:09:45;;;;;;;7.57;2.10;;;8.50;1.00;;;;;;5013074;28;20421;-66
2020/12/24 02:12:12;;;;;;;7.30;2.00;;;8.50;1.00;;;;;;5013050;28;20424;-65
2020/12/24 02:14:38;;;;;;;10.32;2.40;;;8.40;1.00;;;;;;5012775;28;20420;-65
2020/12/24 02:17:05;;;;;;;4.10;1.40;;;8.40;1.00;;;;;;5012446;28;20421;-66
2020/12/24 02:19:31;;;;;;;5.22;1.80;;;8.40;1.00;;;;;;5012523;28;20920;-65
2020/12/24 02:21:57;;;;;;;6.85;2.20;;;8.40;1.00;;;;;;5012796;28;20416;-66
2020/12/24 02:24:24;;;;;;;5.72;2.10;;;8.30;1.00;;;;;;5012775;28;20429;-65
2020/12/24 02:26:50;;;;;;;5.60;1.77;;;8.40;1.00;;;;;;5012395;28;20960;-66
2020/12/24 02:29:16;;;;;;;10.18;2.20;;;8.40;1.00;;;;;;5012225;28;20412;-66
2020/12/24 02:31:42;;;;;;;8.35;2.47;;;8.30;1.00;;;;;;5012364;28;20417;-65
2020/12/24 02:34:08;;;;;;;6.75;2.10;;;8.30;1.00;;;;;;5012210;28;20412;-66
2020/12/24 02:36:34;;;;;;;5.20;1.92;;;8.30;1.00;;;;;;5012295;28;20416;-66
2020/12/24 02:39:01;;;;;;;5.32;2.13;;;8.30;1.00;;;;;;5012426;28;20482;-66
2020/12/24 02:41:27;;;;;;;4.65;2.00;;;8.30;1.00;;;;;;5012052;28;20417;-65
2020/12/24 02:43:53;;;;;;;4.72;1.88;;;8.30;1.00;;;;;;5012001;28;20797;-65
2020/12/24 02:46:19;;;;;;;5.90;1.80;;;8.40;1.00;;;;;;5011936;28;20466;-65
2020/12/24 02:48:45;;;;;;;4.90;1.83;;;8.30;1.00;;;;;;5011937;28;20416;-65
2020/12/24 02:51:13;;;;;;;6.75;2.22;;;8.30;1.00;;;;;;5012295;28;20424;-65
2020/12/24 02:53:39;;;;;;;7.20;1.83;;;8.30;1.00;;;;;;5011896;28;20429;-65
2020/12/24 02:56:06;;;;;;;6.80;1.98;;;8.40;1.00;;;;;;5012063;28;20471;-65
2020/12/24 02:58:32;;;;;;;6.30;1.80;;;8.40;1.00;;;;;;5011994;28;20416;-65
2020/12/24 03:00:58;;;;;;;6.28;1.90;;;8.40;1.00;;;;;;5012075;28;20420;-66
2020/12/24 03:03:25;;;;;;;6.13;1.70;;;8.40;1.00;;;;;;5011568;28;20416;-66
2020/12/24 03:05:51;;;;;;;3.67;1.50;;;8.40;1.00;;;;;;5011704;28;20449;-66
2020/12/24 03:08:17;;;;;;;6.13;1.50;;;8.40;1.00;;;;;;5011918;28;20413;-65
2020/12/24 03:10:44;;;;;;;4.05;1.60;;;8.40;1.00;;;;;;5011213;28;20420;-65
2020/12/24 03:13:11;;;;;;;4.32;1.40;;;8.50;1.00;;;;;;5011661;28;20421;-65
2020/12/24 03:15:37;;;;;;;6.13;1.38;;;8.50;1.00;;;;;;5011272;28;20889;-65
2020/12/24 03:18:03;;;;;;;5.75;1.95;;;8.50;1.00;;;;;;5011521;28;20417;-65
2020/12/24 03:20:29;;;;;;;7.72;2.10;;;8.50;1.00;;;;;;5011863;28;20409;-66
2020/12/24 03:22:55;;;;;;;7.20;1.40;;;8.40;1.00;;;;;;5011551;28;20416;-66
2020/12/24 03:25:21;;;;;;;7.15;1.80;;;8.40;1.00;;;;;;5011468;28;20439;-65
2020/12/24 03:27:47;;;;;;;6.78;2.00;;;8.40;1.00;;;;;;5011285;28;20421;-66
2020/12/24 03:30:14;;;;;;;4.45;1.67;;;8.40;1.00;;;;;;5011731;28;20420;-66
2020/12/24 03:32:40;;;;;;;4.45;1.52;;;8.40;1.00;;;;;;5011215;28;20416;-65
2020/12/24 03:35:07;;;;;;;6.05;1.70;;;8.40;1.00;;;;;;5011550;28;20408;-66
2020/12/24 03:37:33;;;;;;;5.97;1.80;;;8.20;1.00;;;;;;5011283;28;20898;-66
2020/12/24 03:40:00;;;;;;;7.22;1.60;;;8.20;1.00;;;;;;5011133;28;20901;-66
2020/12/24 03:42:26;;;;;;;5.38;2.08;;;8.10;1.00;;;;;;5011171;28;20424;-66
2020/12/24 03:44:52;;;;;;;5.90;1.75;;;8.10;1.00;;;;;;5011204;28;20825;-66
2020/12/24 03:47:19;;;;;;;4.60;1.80;;;8.00;1.00;;;;;;5011108;28;20548;-66
2020/12/24 03:49:45;;;;;;;4.00;1.42;;;8.00;1.00;;;;;;5011266;28;20432;-66
2020/12/24 03:52:11;;;;;;;3.15;1.20;;;8.00;1.00;;;;;;5011251;28;20424;-65
2020/12/24 03:54:37;;;;;;;4.65;1.60;;;8.10;1.00;;;;;;5011479;28;20408;-66
2020/12/24 03:57:03;;;;;;;4.65;1.38;;;8.10;1.00;;;;;;5011231;28;20417;-66
2020/12/24 03:59:29;;;;;;;6.07;2.10;;;8.10;1.00;;;;;;5011049;28;20431;-66
2020/12/24 04:01:55;;;;;;;6.18;2.50;;;8.00;1.00;;;;;;5010836;28;20416;-66
2020/12/24 04:04:22;;;;;;;5.35;1.90;;;7.90;1.00;;;;;;5011156;28;20424;-66
2020/12/24 04:06:48;;;;;;;5.78;1.90;;;7.90;1.00;;;;;;5011230;28;20896;-66
2020/12/24 04:09:14;;;;;;;4.35;1.60;;;7.80;1.00;;;;;;5011288;28;20424;-65
2020/12/24 04:11:40;;;;;;;4.10;1.50;;;7.80;1.00;;;;;;5010914;28;20889;-66
2020/12/24 04:14:06;;;;;;;5.85;1.20;;;7.80;1.00;;;;;;5010950;28;20417;-66
2020/12/24 04:16:32;;;;;;;4.13;1.25;;;7.70;1.00;;;;;;5010860;28;20416;-66
2020/12/24 04:18:58;;;;;;;7.20;2.22;;;7.70;1.00;;;;;;5011030;28;20935;-66
2020/12/24 04:21:25;;;;;;;8.90;1.52;;;7.70;1.00;;;;;;5013551;28;20412;-66
2020/12/24 04:23:51;;;;;;;3.78;1.52;;;7.80;1.00;;;;;;5014537;28;20422;-65
2020/12/24 04:26:21;;;;;;;4.05;1.40;;;7.80;1.00;;;;;;5014641;28;20877;-65
2020/12/24 04:28:47;;;;;;;4.55;1.83;;;7.80;1.00;;;;;;5014713;28;20439;-65
2020/12/24 04:31:13;;;;;;;6.60;1.80;;;7.90;1.00;;;;;;5014921;28;20412;-65
2020/12/24 04:33:40;;;;;;;6.90;1.93;;;7.90;1.00;;;;;;5014774;28;20425;-65
2020/12/24 04:36:06;;;;;;;6.90;1.60;;;7.90;1.00;;;;;;5014681;28;20428;-66
2020/12/24 04:38:34;;;;;;;6.18;2.30;;;7.90;1.00;;;;;;5014629;28;20789;-66
2020/12/24 04:41:01;;;;;;;7.88;1.80;;;7.90;1.00;;;;;;5014325;28;20836;-64
2020/12/24 04:43:28;;;;;;;6.40;2.10;;;7.90;1.00;;;;;;5014352;28;20420;-66
2020/12/24 04:45:55;;;;;;;5.00;1.27;;;8.00;1.00;;;;;;5016196;28;20428;-65
2020/12/24 04:48:21;;;;;;;4.03;1.60;;;8.00;1.00;;;;;;5014900;28;20413;-65
2020/12/24 04:50:50;;;;;;;3.45;1.20;;;8.00;1.00;;;;;;5014627;28;20471;-64
2020/12/24 04:53:16;;;;;;;8.10;2.35;;;7.90;1.00;;;;;;5014900;28;20443;-65
2020/12/24 04:55:43;;;;;;;5.35;1.90;;;7.90;1.00;;;;;;5014184;28;20416;-65
2020/12/24 04:58:09;;;;;;;4.80;1.38;;;8.00;1.00;;;;;;5014353;28;20408;-66
2020/12/24 05:00:36;;;;;;;5.68;1.77;;;8.00;1.00;;;;;;5014395;28;20416;-66
2020/12/24 05:03:04;;;;;;;3.38;2.00;;;8.00;1.00;;;;;;5014221;28;20897;-65
2020/12/24 05:05:31;;;;;;;5.85;1.80;;;8.00;1.00;;;;;;5013892;28;20941;-65
2020/12/24 05:07:57;;;;;;;4.20;1.40;;;8.00;1.00;;;;;;5013987;28;20465;-66
2020/12/24 05:10:23;;;;;;;5.60;1.98;;;7.90;1.00;;;;;;5013677;28;20889;-65
2020/12/24 05:12:50;;;;;;;8.82;1.70;;;7.80;1.00;;;;;;5014095;28;20416;-65
2020/12/24 05:15:27;;;;;;;3.88;1.38;;;7.80;1.00;;;;;;5013796;28;20413;-65
2020/12/24 05:17:53;;;;;;;5.40;1.40;;;7.90;1.00;;;;;;5013868;28;20413;-65
2020/12/24 05:20:19;;;;;;;6.28;1.60;;;7.90;1.00;;;;;;5014108;28;20419;-65
2020/12/24 05:22:45;;;;;;;3.13;1.40;;;7.80;1.00;;;;;;5013588;28;20413;-66
2020/12/24 05:25:18;;;;;;;4.78;1.40;;;7.90;1.00;;;;;;5013555;28;20759;-65
2020/12/24 05:27:45;;;;;;;5.03;1.90;;;7.90;1.00;;;;;;5013889;28;20888;-65
2020/12/24 05:30:12;;;;;;;4.23;1.60;;;7.90;1.00;;;;;;5012665;28;20417;-65
2020/12/24 05:32:44;;;;;;;3.30;1.40;;;7.90;1.00;;;;;;5012924;28;20511;-66
2020/12/24 05:35:11;;;;;;;4.75;1.55;;;7.90;1.00;;;;;;5013426;28;20516;-65
2020/12/24 05:37:38;;;;;;;5.22;1.70;;;7.90;1.00;;;;;;5013543;28;20467;-65
2020/12/24 05:40:18;;;;;;;4.47;1.60;;;7.90;1.00;;;;;;5013484;28;20424;-65
2020/12/24 05:42:52;;;;;;;5.85;1.50;;;7.90;1.00;;;;;;5013516;28;20785;-65
2020/12/24 05:45:21;;;;;;;4.75;1.50;;;7.80;1.00;;;;;;5013215;28;20428;-65
2020/12/24 05:47:47;;;;;;;6.68;1.70;;;7.80;1.00;;;;;;5013387;28;20428;-65
2020/12/24 05:50:23;;;;;;;4.40;1.20;;;7.80;1.00;;;;;;5013037;28;20487;-65
2020/12/24 05:53:07;;;;;;;5.15;1.83;;;7.70;1.00;;;;;;5013003;28;20458;-65
2020/12/24 05:55:33;;;;;;;4.40;1.67;;;7.70;1.00;;;;;;5013313;28;20416;-65
2020/12/24 05:58:00;;;;;;;7.60;1.80;;;7.70;1.00;;;;;;5012966;28;20499;-65
2020/12/24 06:00:34;;;;;;;4.60;1.90;;;7.70;1.00;;;;;;5012936;28;20486;-65
2020/12/24 06:03:12;;;;;;;6.65;2.40;;;7.70;1.00;;;;;;5012889;28;20947;-66
2020/12/24 06:05:54;;;;;;;4.72;2.10;;;7.70;1.00;;;;;;5012838;28;20844;-65
2020/12/24 06:08:23;;;;;;;4.90;1.80;;;7.70;1.00;;;;;;5013023;28;20420;-65
2020/12/24 06:11:00;;;;;;;7.60;1.90;;;7.60;1.00;;;;;;5012547;28;20458;-66
2020/12/24 06:13:35;;;;;;;7.18;2.42;;;7.60;1.00;;;;;;5012887;28;20458;-66
2020/12/24 06:16:03;;;;;;;5.30;1.70;;;7.60;1.00;;;;;;5012646;28;20462;-66
2020/12/24 06:18:32;;;;;;;6.32;1.67;;;7.70;3.50;;;;;;5012896;28;20417;-66
2020/12/24 06:21:00;;;;;;;5.17;1.80;;;7.70;3.20;;;;;;5012715;28;20420;-65
2020/12/24 06:23:27;;;;;;;4.70;1.38;;;7.60;16.00;;;;;;5012306;28;20473;-66
2020/12/24 06:25:56;;;;;;;4.47;1.60;;;7.70;20.20;;;;;;5012765;28;20429;-66
2020/12/24 06:28:23;;;;;;;6.90;1.55;;;7.60;37.80;;;;;;5012700;28;20814;-66
2020/12/24 06:30:49;;;;;;;5.40;1.77;;;7.60;61.70;;;;;;5012698;28;20413;-66
2020/12/24 06:33:26;;;;;;;6.97;1.43;;;7.60;91.50;;;;;;5012465;28;20417;-66
2020/12/24 06:35:52;;;;;;;4.95;1.60;;;7.40;99.90;;;;;;5012098;28;21015;-66
2020/12/24 06:38:38;;;;;;;5.18;1.60;;;7.40;99.90;;;;;;5012591;28;20431;-66
2020/12/24 06:41:22;;;;;;;6.47;2.03;;;7.40;99.90;;;;;;5012012;28;20424;-66
2020/12/24 06:43:48;;;;;;;7.00;1.70;;;7.40;99.90;;;;;;5011204;28;20455;-66
2020/12/24 06:46:14;;;;;;;7.88;2.30;;;7.40;99.90;;;;;;5011763;28;20905;-66
2020/12/24 06:48:41;;;;;;;3.30;1.60;;;7.30;99.90;;;;;;5012018;28;20413;-67
2020/12/24 06:51:07;;;;;;;6.68;2.13;;;7.30;99.90;;;;;;5012162;28;20912;-66
2020/12/24 06:53:34;;;;;;;6.50;2.30;;;7.30;99.90;;;;;;5011955;28;20417;-66
2020/12/24 06:56:28;;;;;;;5.50;2.08;;;7.20;99.90;;;;;;5012027;28;20405;-66
2020/12/24 06:58:59;;;;;;;4.28;1.80;;;7.20;1.00;;;;;;4976892;28;20511;-66
2020/12/24 07:01:27;;;;;;;6.15;1.60;;;7.30;1.00;;;;;;5012071;28;20466;-66
2020/12/24 07:03:55;;;;;;;5.65;2.90;;;7.30;1.00;;;;;;5011577;28;20425;-66
2020/12/24 07:06:50;;;;;;;4.07;1.75;;;7.30;1.00;;;;;;5011823;28;20417;-66
2020/12/24 07:09:41;;;;;;;5.85;1.85;;;7.20;1.00;;;;;;5006287;28;20806;-66
2020/12/24 07:12:08;;;;;;;6.30;2.10;;;7.30;1.00;;;;;;5011913;28;20464;-66
2020/12/24 07:14:35;;;;;;;9.73;3.05;;;7.30;1.00;;;;;;5012167;28;20503;-67
2020/12/24 07:17:08;;;;;;;6.70;2.00;;;7.40;1.00;;;;;;5012396;28;20797;-66
2020/12/24 07:19:37;;;;;;;7.47;2.70;;;7.40;1.00;;;;;;5013120;28;20421;-67
2020/12/24 07:22:09;;;;;;;8.07;1.80;;;7.40;1.00;;;;;;5011803;28;20482;-66
2020/12/24 07:24:36;;;;;;;8.75;2.88;;;7.40;1.00;;;;;;5012103;28;20464;-66
2020/12/24 07:27:03;;;;;;;8.15;2.63;;;7.40;1.00;;;;;;5011554;28;20444;-66
2020/12/24 07:29:31;;;;;;;5.70;2.60;;;7.40;1.00;;;;;;5011356;28;20420;-66
2020/12/24 07:32:01;;;;;;;4.97;2.30;;;7.40;1.00;;;;;;5011312;28;20424;-66
2020/12/24 07:34:29;;;;;;;6.30;2.60;;;7.50;1.00;;;;;;5011521;28;20858;-65
2020/12/24 07:36:56;;;;;;;5.75;2.00;;;7.50;1.00;;;;;;5011725;28;20444;-66
2020/12/24 07:39:23;;;;;;;4.82;1.90;;;7.50;1.00;;;;;;5012880;28;20428;-66
2020/12/24 07:41:49;;;;;;;4.50;1.92;;;7.40;1.00;;;;;;5011127;28;20417;-66
2020/12/24 07:44:17;;;;;;;5.27;2.30;;;7.40;1.00;;;;;;5011198;28;20440;-66
2020/12/24 07:46:43;;;;;;;4.60;1.90;;;7.50;1.00;;;;;;5011042;28;20413;-66
2020/12/24 07:49:10;;;;;;;3.37;1.80;;;7.50;1.00;;;;;;5011428;28;20434;-66
2020/12/24 07:51:36;;;;;;;3.40;2.08;;;7.20;99.90;;;;;;5011005;28;21087;-66
2020/12/24 07:54:07;;;;;;;2.45;1.50;;;6.90;99.90;;;;;;5011502;28;20412;-66
2020/12/24 07:56:34;;;;;;;3.97;2.80;;;6.50;99.90;;;;;;5014492;28;20473;-65
2020/12/24 07:59:01;;;;;;;3.10;2.30;;;6.20;99.90;;;;;;5015291;28;20522;-66
2020/12/24 08:01:27;;;;;;;1.75;1.65;;;5.90;99.90;;;;;;5015060;28;20991;-65
2020/12/24 08:03:58;;;;;;;2.10;1.90;;;5.60;99.90;;;;;;5015132;28;20539;-66
2020/12/24 08:06:24;;;;;;;1.70;1.60;;;5.40;99.90;;;;;;5015489;28;20474;-66
2020/12/24 08:08:50;;;;;;;2.00;1.90;;;5.10;99.90;;;;;;5015356;28;20419;-67
2020/12/24 08:11:17;;;;;;;1.90;1.70;;;5.00;99.90;;;;;;5015152;28;20426;-66
2020/12/24 08:13:43;;;;;;;1.90;1.80;;;4.90;99.90;;;;;;5015027;28;20767;-66
2020/12/24 08:16:12;;;;;;;1.83;1.73;;;4.70;99.90;;;;;;5015040;28;20420;-66
2020/12/24 08:18:44;;;;;;;1.80;1.70;;;4.60;1.00;;;;;;5015363;28;20431;-67
2020/12/24 08:21:20;;;;;;;2.50;2.20;;;4.50;1.00;;;;;;5015127;28;20800;-66
2020/12/24 08:23:49;;;;;;;2.08;1.88;;;4.60;1.00;;;;;;5014941;28;20466;-66
2020/12/24 08:26:18;;;;;;;2.30;1.88;;;4.50;1.00;;;;;;4995190;28;20799;-66
2020/12/24 08:28:50;;;;;;;2.43;2.23;;;4.40;1.00;;;;;;4995229;28;20426;-66
2020/12/24 08:31:18;;;;;;;2.30;2.10;;;4.40;1.00;;;;;;4995353;28;20429;-66
2020/12/24 08:33:49;;;;;;;2.33;2.13;;;4.30;1.00;;;;;;5008859;28;20424;-66
2020/12/24 08:36:17;;;;;;;3.40;2.30;;;4.30;1.00;;;;;;5014688;28;20496;-65
2020/12/24 08:38:43;;;;;;;2.50;2.30;;;4.20;1.00;;;;;;5014567;28;20941;-65
2020/12/24 08:41:23;;;;;;;2.25;2.05;;;4.10;1.00;;;;;;5014397;28;20889;-66
2020/12/24 08:43:52;;;;;;;2.40;2.20;;;4.20;25.90;;;;;;5014597;28;20877;-66
2020/12/24 08:46:18;;;;;;;2.47;2.10;;;4.10;1.00;;;;;;5013504;28;20486;-66
2020/12/24 08:48:44;;;;;;;3.13;2.20;;;4.10;1.00;;;;;;4993722;28;20417;-66
2020/12/24 08:51:15;;;;;;;2.38;1.67;;;4.10;1.00;;;;;;4995118;28;20418;-67
2020/12/24 08:53:44;;;;;;;2.42;1.70;;;3.90;1.00;;;;;;4994581;28;20426;-69
2020/12/24 08:56:12;;;;;;;2.20;2.00;;;3.80;27.30;;;;;;4994638;28;20458;-68
2020/12/24 08:58:48;;;;;;;1.83;1.50;;;3.90;98.00;;;;;;4994460;28;20424;-68
2020/12/24 09:01:14;;;;;;;2.25;1.90;;;3.80;99.90;;;;;;4994479;28;20422;-67
2020/12/24 09:03:40;;;;;;;1.77;1.63;;;3.70;99.90;;;;;;4993963;28;20419;-68
2020/12/24 09:06:11;;;;;;;1.70;1.60;;;3.70;99.90;;;;;;4994157;28;20442;-68
2020/12/24 09:08:38;;;;;;;2.22;1.85;;;3.80;99.90;;;;;;4993626;28;20433;-67
2020/12/24 09:11:04;;;;;;;1.77;1.67;;;3.80;99.90;;;;;;4994921;28;20783;-66
2020/12/24 09:13:30;;;;;;;2.60;1.83;;;3.80;99.90;;;;;;4995134;28;20422;-66
2020/12/24 09:15:57;;;;;;;6.80;4.68;;;3.90;99.90;;;;;;4995369;28;20417;-67
2020/12/24 09:18:23;;;;;;;2.40;1.97;;;4.00;99.90;;;;;;5000488;28;20548;-67
2020/12/24 09:20:49;;;;;;;3.40;1.80;;;4.10;99.90;;;;;;5015027;28;20420;-68
2020/12/24 09:23:16;;;;;;;2.60;1.95;;;4.10;99.90;;;;;;5007171;28;20422;-67
2020/12/24 09:25:44;;;;;;;2.40;1.90;;;4.20;99.90;;;;;;4994958;28;20492;-67
2020/12/24 09:28:21;;;;;;;2.20;1.80;;;4.20;99.90;;;;;;4994573;28;20490;-67
2020/12/24 09:30:48;;;;;;;2.10;1.90;;;4.20;99.90;;;;;;4994140;28;20445;-68
2020/12/24 09:33:15;;;;;;;2.58;1.70;;;4.20;99.90;;;;;;5007658;28;20428;-66
2020/12/24 09:35:41;;;;;;;2.30;2.00;;;4.30;99.90;;;;;;5009228;28;20422;-65
2020/12/24 09:38:08;;;;;;;2.30;2.10;;;4.50;99.90;;;;;;5012949;28;20968;-66
2020/12/24 09:40:35;;;;;;;1.92;1.80;;;4.50;99.90;;;;;;5013435;28;20420;-66
2020/12/24 09:43:01;;;;;;;2.30;2.10;;;4.60;99.90;;;;;;5012962;28;20416;-67
2020/12/24 09:45:28;;;;;;;1.90;1.80;;;4.70;99.90;;;;;;5013067;28;20420;-67
2020/12/24 09:47:55;;;;;;;2.20;2.00;;;4.80;99.90;;;;;;5012764;28;20432;-67
2020/12/24 09:50:22;;;;;;;2.38;2.17;;;4.80;58.20;;;;;;5013500;28;20803;-67
2020/12/24 09:52:48;;;;;;;1.90;1.80;;;4.70;1.00;;;;;;5012941;28;20495;-66
2020/12/24 09:55:14;;;;;;;2.22;1.80;;;4.70;1.00;;;;;;5012976;28;20886;-67
2020/12/24 09:57:40;;;;;;;2.10;1.90;;;4.70;1.00;;;;;;5012725;28;20416;-66
2020/12/24 10:00:09;;;;;;;2.50;1.80;;;4.60;1.00;;;;;;5012414;28;20416;-67
2020/12/24 10:02:35;;;;;;;2.10;1.90;;;4.70;1.00;;;;;;5012496;28;20413;-67
2020/12/24 10:05:01;;;;;;;2.65;2.10;;;4.70;1.00;;;;;;5012884;28;20440;-70
2020/12/24 10:07:28;;;;;;;2.60;2.40;;;4.60;1.00;;;;;;5015363;28;20475;-67
2020/12/24 10:09:54;;;;;;;2.80;2.50;;;4.70;1.00;;;;;;5012939;28;20420;-66
2020/12/24 10:12:21;;;;;;;2.10;1.90;;;4.80;1.00;;;;;;5013224;28;20424;-66
2020/12/24 10:14:47;;;;;;;2.25;2.05;;;5.00;1.00;;;;;;5013266;28;20789;-66
2020/12/24 10:17:13;;;;;;;3.63;2.67;;;5.00;1.00;;;;;;5013684;28;20417;-67
2020/12/24 10:19:39;;;;;;;2.20;2.00;;;5.00;1.00;;;;;;5013555;28;20782;-67
2020/12/24 10:22:05;;;;;;;2.45;2.13;;;5.10;1.00;;;;;;5015281;28;20535;-68
2020/12/24 10:24:32;;;;;;;2.55;2.00;;;5.00;1.00;;;;;;5015923;28;20459;-68
2020/12/24 10:26:58;;;;;;;2.67;2.30;;;4.90;99.90;;;;;;5014976;28;20420;-68
2020/12/24 10:29:24;;;;;;;2.40;2.20;;;4.90;1.00;;;;;;5012996;28;20451;-68
2020/12/24 10:31:50;;;;;;;2.80;2.60;;;4.90;1.00;;;;;;5012824;28;20479;-68
2020/12/24 10:34:17;;;;;;;2.90;2.70;;;5.00;99.90;;;;;;5012993;28;20804;-68
2020/12/24 10:36:43;;;;;;;2.40;2.20;;;4.90;99.90;;;;;;5012592;28;20419;-68
2020/12/24 10:39:09;;;;;;;3.00;2.50;;;4.90;99.90;;;;;;5012260;28;20439;-68
2020/12/24 10:41:37;;;;;;;2.92;2.50;;;4.90;99.90;;;;;;5012578;28;20502;-68
2020/12/24 10:44:04;;;;;;;3.70;2.70;;;4.90;99.90;;;;;;5012471;28;20425;-68
2020/12/24 10:46:30;;;;;;;3.00;2.70;;;5.00;99.90;;;;;;5012274;28;20429;-68
2020/12/24 10:48:56;;;;;;;3.40;3.10;;;5.00;99.90;;;;;;5012313;28;20423;-68
2020/12/24 10:51:22;;;;;;;4.00;3.35;;;5.00;99.90;;;;;;5012371;28;20413;-68
2020/12/24 10:53:49;;;;;;;3.50;3.20;;;4.90;99.90;;;;;;5012469;28;20885;-67
2020/12/24 10:56:16;;;;;;;4.10;3.20;;;5.00;99.90;;;;;;5011777;28;20409;-67
2020/12/24 10:58:44;;;;;;;4.30;3.88;;;5.10;99.90;;;;;;5013368;28;20416;-68
2020/12/24 11:01:10;;;;;;;3.80;3.40;;;4.90;99.90;;;;;;5012688;28;20478;-67
2020/12/24 11:03:37;;;;;;;4.18;3.78;;;5.00;99.90;;;;;;5011704;28;20412;-67
2020/12/24 11:06:04;;;;;;;3.55;3.25;;;4.90;99.90;;;;;;5012237;28;20855;-68
2020/12/24 11:08:30;;;;;;;3.15;2.85;;;5.00;99.90;;;;;;5011429;28;20424;-67
2020/12/24 11:10:56;;;;;;;3.50;3.10;;;4.90;99.90;;;;;;5011885;28;20421;-67
2020/12/24 11:13:23;;;;;;;3.80;3.40;;;4.80;99.90;;;;;;5011753;28;20425;-67
2020/12/24 11:15:50;;;;;;;5.13;4.63;;;4.80;99.90;;;;;;5011596;28;20413;-67
2020/12/24 11:18:16;;;;;;;5.15;4.65;;;4.90;99.90;;;;;;5011365;28;20432;-67
2020/12/24 11:20:42;;;;;;;4.50;4.00;;;4.80;99.90;;;;;;5011433;28;20828;-67
2020/12/24 11:23:08;;;;;;;5.72;5.18;;;4.90;1.00;;;;;;5011522;28;20417;-67
2020/12/24 11:25:35;;;;;;;5.45;4.95;;;5.00;1.00;;;;;;5011582;28;20429;-67
2020/12/24 11:28:01;;;;;;;6.90;5.30;;;5.00;99.90;;;;;;5011640;28;20576;-66
2020/12/24 11:30:27;;;;;;;5.72;5.18;;;5.00;99.90;;;;;;5011681;28;20436;-66
2020/12/24 11:32:55;;;;;;;8.10;6.30;;;5.20;1.00;;;;;;5011498;28;20420;-65
2020/12/24 11:35:21;;;;;;;9.00;6.78;;;5.00;99.90;;;;;;5011703;28;20408;-66
2020/12/24 11:37:47;;;;;;;7.72;6.55;;;4.90;99.90;;;;;;5011187;28;20845;-65
2020/12/24 11:40:14;;;;;;;8.97;6.90;;;4.80;99.90;;;;;;5011172;28;20503;-65
2020/12/24 11:42:40;;;;;;;8.23;7.00;;;4.80;99.90;;;;;;5011165;28;20928;-65
2020/12/24 11:45:06;;;;;;;9.98;7.80;;;4.80;1.00;;;;;;5011173;28;20428;-65
2020/12/24 11:47:34;;;;;;;7.75;6.45;;;4.70;1.00;;;;;;5011082;28;20413;-66
2020/12/24 11:50:01;;;;;;;6.47;5.88;;;4.80;1.00;;;;;;5011118;28;20416;-66
2020/12/24 11:52:27;;;;;;;23.35;17.45;;;4.70;99.90;;;;;;5010896;28;20412;-65
2020/12/24 11:54:53;;;;;;;7.70;6.90;;;4.70;1.00;;;;;;5011016;28;20428;-65
2020/12/24 11:57:19;;;;;;;9.43;8.10;;;4.70;1.00;;;;;;5010824;28;20421;-66
2020/12/24 11:59:45;;;;;;;10.05;7.72;;;4.60;1.00;;;;;;5010794;28;20420;-65
2020/12/24 12:02:11;;;;;;;11.88;9.30;;;4.60;1.00;;;;;;5011065;28;20428;-66
2020/12/24 12:04:38;;;;;;;11.73;9.50;;;4.60;1.00;;;;;;5010669;28;20417;-66
2020/12/24 12:07:04;;;;;;;11.80;10.33;;;4.70;1.00;;;;;;5010516;28;20428;-65
2020/12/24 12:09:31;;;;;;;12.35;10.20;;;4.80;1.00;;;;;;5010594;28;20421;-65
2020/12/24 12:11:57;;;;;;;13.67;10.90;;;4.80;1.00;;;;;;5010957;28;20424;-66
2020/12/24 12:14:23;;;;;;;15.57;11.82;;;4.80;1.00;;;;;;5010285;28;20417;-66
2020/12/24 12:16:49;;;;;;;15.25;13.10;;;4.80;1.00;;;;;;5011478;28;20444;-65
2020/12/24 12:19:15;;;;;;;14.52;12.02;;;4.90;47.00;;;;;;5011314;28;20413;-65
2020/12/24 12:21:41;;;;;;;15.90;13.10;;;4.80;1.00;;;;;;5010822;28;21031;-65
2020/12/24 12:24:08;;;;;;;19.65;15.38;;;5.00;25.20;;;;;;5011165;28;20421;-65
2020/12/24 12:26:34;;;;;;;20.00;16.42;;;5.00;31.50;;;;;;5010886;28;20428;-65
2020/12/24 12:29:00;;;;;;;19.23;15.57;;;5.10;2.90;;;;;;5011078;28;20413;-65
2020/12/24 12:31:26;;;;;;;18.67;15.88;;;5.10;38.50;;;;;;5010793;28;20786;-65
2020/12/24 12:33:53;;;;;;;17.75;14.77;;;5.10;13.30;;;;;;5010271;28;20427;-65
2020/12/24 12:36:20;;;;;;;15.40;13.80;;;5.20;58.50;;;;;;5010342;28;20412;-65
2020/12/24 12:38:47;;;;;;;13.47;12.07;;;5.30;75.90;;;;;;5010530;28;20416;-66
2020/12/24 12:41:15;;;;;;;14.43;11.93;;;5.20;36.90;;;;;;5011341;28;20416;-65
2020/12/24 12:43:42;;;;;;;15.40;12.87;;;5.20;37.80;;;;;;5014298;28;20420;-65
2020/12/24 12:46:08;;;;;;;13.73;11.65;;;5.30;94.20;;;;;;5014262;28;20487;-65
2020/12/24 12:48:35;;;;;;;12.32;10.98;;;5.30;37.50;;;;;;5014452;28;20412;-69
2020/12/24 12:51:02;;;;;;;12.73;11.43;;;5.20;24.80;;;;;;5015388;28;20416;-65
2020/12/24 12:53:28;;;;;;;10.18;9.18;;;5.40;24.60;;;;;;5014658;28;20413;-67
2020/12/24 12:55:54;;;;;;;9.75;8.52;;;5.50;11.20;;;;;;5014644;28;20427;-66
2020/12/24 12:58:21;;;;;;;10.80;9.70;;;5.50;1.00;;;;;;5014063;28;20453;-65
2020/12/24 13:00:47;;;;;;;9.60;8.60;;;5.50;1.00;;;;;;5014114;28;20825;-65
2020/12/24 13:03:13;;;;;;;10.40;8.83;;;5.50;1.00;;;;;;5013970;28;20417;-65